sensor_id;sensor_type;location;lat;lon;timestamp;temperature;humidity
3504;DHT22;1766;53.490;10.174;2022-12-10T00:01:50;7.20;46.20
3504;DHT22;1766;53.490;10.174;2022-12-10T00:03:53;7.20;46.40
3504;DHT22;1766;53.490;10.174;2022-12-10T00:05:55;7.20;46.30
3504;DHT22;1766;53.490;10.174;2022-12-10T00:08:01;7.30;46.50
3504;DHT22;1766;53.490;10.174;2022-12-10T00:10:03;7.20;46.20
3504;DHT22;1766;53.490;10.174;2022-12-10T00:12:05;7.40;46.40
3504;DHT22;1766;53.490;10.174;2022-12-10T00:14:07;7.30;46.20
3504;DHT22;1766;53.490;10.174;2022-12-10T00:16:12;7.20;46.20
3504;DHT22;1766;53.490;10.174;2022-12-10T00:18:17;7.20;46.20
3504;DHT22;1766;53.490;10.174;2022-12-10T00:20:18;7.20;46.20
3504;DHT22;1766;53.490;10.174;2022-12-10T00:22:20;7.20;46.20
3504;DHT22;1766;53.490;10.174;2022-12-10T00:24:22;7.30;46.20
3504;DHT22;1766;53.490;10.174;2022-12-10T00:26:25;7.20;46.20
3504;DHT22;1766;53.490;10.174;2022-12-10T00:28:28;7.20;46.30
3504;DHT22;1766;53.490;10.174;2022-12-10T00:30:29;7.20;46.30
3504;DHT22;1766;53.490;10.174;2022-12-10T00:32:32;7.20;46.20
3504;DHT22;1766;53.490;10.174;2022-12-10T00:34:34;7.30;46.80
3504;DHT22;1766;53.490;10.174;2022-12-10T00:36:39;7.20;46.20
3504;DHT22;1766;53.490;10.174;2022-12-10T00:38:46;7.20;46.30
3504;DHT22;1766;53.490;10.174;2022-12-10T00:40:48;7.20;46.20
3504;DHT22;1766;53.490;10.174;2022-12-10T00:42:50;7.20;46.10
3504;DHT22;1766;53.490;10.174;2022-12-10T00:44:52;7.20;46.10
3504;DHT22;1766;53.490;10.174;2022-12-10T00:46:53;7.20;46.10
3504;DHT22;1766;53.490;10.174;2022-12-10T00:48:57;7.20;46.10
3504;DHT22;1766;53.490;10.174;2022-12-10T00:51:01;7.20;45.90
3504;DHT22;1766;53.490;10.174;2022-12-10T00:53:04;7.20;46.20
3504;DHT22;1766;53.490;10.174;2022-12-10T00:55:06;7.10;46.00
3504;DHT22;1766;53.490;10.174;2022-12-10T00:57:08;7.10;46.10
3504;DHT22;1766;53.490;10.174;2022-12-10T00:59:10;7.10;46.10
3504;DHT22;1766;53.490;10.174;2022-12-10T01:01:14;7.10;46.00
3504;DHT22;1766;53.490;10.174;2022-12-10T01:03:17;7.10;46.20
3504;DHT22;1766;53.490;10.174;2022-12-10T01:05:20;7.10;46.10
3504;DHT22;1766;53.490;10.174;2022-12-10T01:07:22;7.20;46.20
3504;DHT22;1766;53.490;10.174;2022-12-10T01:09:26;7.20;46.20
3504;DHT22;1766;53.490;10.174;2022-12-10T01:11:31;7.10;46.20
3504;DHT22;1766;53.490;10.174;2022-12-10T01:13:34;7.10;46.20
3504;DHT22;1766;53.490;10.174;2022-12-10T01:15:37;7.20;46.10
3504;DHT22;1766;53.490;10.174;2022-12-10T01:17:40;7.20;46.20
3504;DHT22;1766;53.490;10.174;2022-12-10T01:19:41;7.20;46.10
3504;DHT22;1766;53.490;10.174;2022-12-10T01:21:45;7.10;46.10
3504;DHT22;1766;53.490;10.174;2022-12-10T01:23:48;7.30;46.20
3504;DHT22;1766;53.490;10.174;2022-12-10T01:25:51;7.10;46.10
3504;DHT22;1766;53.490;10.174;2022-12-10T01:27:52;7.20;46.00
3504;DHT22;1766;53.490;10.174;2022-12-10T01:29:54;7.20;46.00
3504;DHT22;1766;53.490;10.174;2022-12-10T01:31:57;7.30;46.20
3504;DHT22;1766;53.490;10.174;2022-12-10T01:33:59;7.20;46.20
3504;DHT22;1766;53.490;10.174;2022-12-10T01:36:03;7.30;46.20
3504;DHT22;1766;53.490;10.174;2022-12-10T01:38:07;7.20;46.10
3504;DHT22;1766;53.490;10.174;2022-12-10T01:40:09;7.20;46.00
3504;DHT22;1766;53.490;10.174;2022-12-10T01:42:13;7.20;46.20
3504;DHT22;1766;53.490;10.174;2022-12-10T01:47:01;7.20;46.20
3504;DHT22;1766;53.490;10.174;2022-12-10T01:49:05;7.20;46.00
3504;DHT22;1766;53.490;10.174;2022-12-10T01:51:09;7.10;46.00
3504;DHT22;1766;53.490;10.174;2022-12-10T01:53:13;7.10;46.10
3504;DHT22;1766;53.490;10.174;2022-12-10T01:55:39;7.20;46.10
3504;DHT22;1766;53.490;10.174;2022-12-10T01:57:43;7.20;46.30
3504;DHT22;1766;53.490;10.174;2022-12-10T01:59:47;7.30;46.20
3504;DHT22;1766;53.490;10.174;2022-12-10T02:01:54;7.20;46.00
3504;DHT22;1766;53.490;10.174;2022-12-10T02:04:09;7.30;46.20
3504;DHT22;1766;53.490;10.174;2022-12-10T02:06:23;7.20;46.20
3504;DHT22;1766;53.490;10.174;2022-12-10T02:08:38;7.10;46.00
3504;DHT22;1766;53.490;10.174;2022-12-10T02:10:59;7.30;46.20
3504;DHT22;1766;53.490;10.174;2022-12-10T02:13:10;7.20;46.10
3504;DHT22;1766;53.490;10.174;2022-12-10T02:15:16;7.20;46.10
3504;DHT22;1766;53.490;10.174;2022-12-10T02:17:24;7.20;46.10
3504;DHT22;1766;53.490;10.174;2022-12-10T02:19:42;7.10;46.10
3504;DHT22;1766;53.490;10.174;2022-12-10T02:21:52;7.20;46.20
3504;DHT22;1766;53.490;10.174;2022-12-10T02:23:59;7.30;46.20
3504;DHT22;1766;53.490;10.174;2022-12-10T02:26:20;7.30;46.10
3504;DHT22;1766;53.490;10.174;2022-12-10T02:28:33;7.30;46.20
3504;DHT22;1766;53.490;10.174;2022-12-10T02:30:42;7.30;46.10
3504;DHT22;1766;53.490;10.174;2022-12-10T02:32:46;7.30;46.10
3504;DHT22;1766;53.490;10.174;2022-12-10T02:34:51;7.30;46.10
3504;DHT22;1766;53.490;10.174;2022-12-10T02:36:55;7.20;46.00
3504;DHT22;1766;53.490;10.174;2022-12-10T02:39:01;7.30;46.00
3504;DHT22;1766;53.490;10.174;2022-12-10T02:41:08;7.30;46.00
3504;DHT22;1766;53.490;10.174;2022-12-10T02:43:13;7.30;46.10
3504;DHT22;1766;53.490;10.174;2022-12-10T02:45:16;7.30;46.10
3504;DHT22;1766;53.490;10.174;2022-12-10T02:47:19;7.30;46.10
3504;DHT22;1766;53.490;10.174;2022-12-10T02:49:22;7.40;46.20
3504;DHT22;1766;53.490;10.174;2022-12-10T02:51:25;7.40;46.20
3504;DHT22;1766;53.490;10.174;2022-12-10T02:53:27;7.40;46.00
3504;DHT22;1766;53.490;10.174;2022-12-10T02:55:37;7.40;46.00
3504;DHT22;1766;53.490;10.174;2022-12-10T02:58:01;7.50;46.20
3504;DHT22;1766;53.490;10.174;2022-12-10T03:02:14;7.40;46.10
3504;DHT22;1766;53.490;10.174;2022-12-10T03:04:22;7.30;46.00
3504;DHT22;1766;53.490;10.174;2022-12-10T03:06:29;7.40;46.20
3504;DHT22;1766;53.490;10.174;2022-12-10T03:08:40;7.40;46.10
3504;DHT22;1766;53.490;10.174;2022-12-10T03:10:53;7.40;46.10
3504;DHT22;1766;53.490;10.174;2022-12-10T03:12:59;7.50;46.20
3504;DHT22;1766;53.490;10.174;2022-12-10T03:15:05;7.50;46.10
3504;DHT22;1766;53.490;10.174;2022-12-10T03:17:10;7.40;46.00
3504;DHT22;1766;53.490;10.174;2022-12-10T03:19:18;7.40;45.90
3504;DHT22;1766;53.490;10.174;2022-12-10T03:21:24;7.50;46.00
3504;DHT22;1766;53.490;10.174;2022-12-10T03:23:28;7.40;46.00
3504;DHT22;1766;53.490;10.174;2022-12-10T03:25:32;7.40;45.80
3504;DHT22;1766;53.490;10.174;2022-12-10T03:27:34;7.40;45.80
3504;DHT22;1766;53.490;10.174;2022-12-10T03:29:40;7.40;45.90
3504;DHT22;1766;53.490;10.174;2022-12-10T03:31:46;7.30;45.80
3504;DHT22;1766;53.490;10.174;2022-12-10T03:33:49;7.30;45.80
3504;DHT22;1766;53.490;10.174;2022-12-10T03:35:52;7.30;45.90
3504;DHT22;1766;53.490;10.174;2022-12-10T03:37:54;7.30;45.90
3504;DHT22;1766;53.490;10.174;2022-12-10T03:39:57;7.30;46.00
3504;DHT22;1766;53.490;10.174;2022-12-10T03:41:59;7.30;45.90
3504;DHT22;1766;53.490;10.174;2022-12-10T03:44:01;7.30;45.80
3504;DHT22;1766;53.490;10.174;2022-12-10T03:46:03;7.40;45.80
3504;DHT22;1766;53.490;10.174;2022-12-10T03:48:05;7.40;45.90
3504;DHT22;1766;53.490;10.174;2022-12-10T03:50:08;7.40;45.80
3504;DHT22;1766;53.490;10.174;2022-12-10T03:52:11;7.40;45.80
3504;DHT22;1766;53.490;10.174;2022-12-10T03:54:13;7.40;45.70
3504;DHT22;1766;53.490;10.174;2022-12-10T03:56:15;7.40;45.80
3504;DHT22;1766;53.490;10.174;2022-12-10T03:58:17;7.40;45.60
3504;DHT22;1766;53.490;10.174;2022-12-10T04:00:19;7.40;45.70
3504;DHT22;1766;53.490;10.174;2022-12-10T04:02:21;7.40;45.70
3504;DHT22;1766;53.490;10.174;2022-12-10T04:04:23;7.50;45.70
3504;DHT22;1766;53.490;10.174;2022-12-10T04:06:24;7.50;45.70
3504;DHT22;1766;53.490;10.174;2022-12-10T04:08:28;7.50;45.70
3504;DHT22;1766;53.490;10.174;2022-12-10T04:10:30;7.40;45.50
3504;DHT22;1766;53.490;10.174;2022-12-10T04:12:31;7.50;45.60
3504;DHT22;1766;53.490;10.174;2022-12-10T04:14:33;7.50;45.60
3504;DHT22;1766;53.490;10.174;2022-12-10T04:16:49;7.50;45.60
3504;DHT22;1766;53.490;10.174;2022-12-10T04:18:51;7.60;45.60
3504;DHT22;1766;53.490;10.174;2022-12-10T04:20:52;7.50;45.50
3504;DHT22;1766;53.490;10.174;2022-12-10T04:23:08;7.50;45.50
3504;DHT22;1766;53.490;10.174;2022-12-10T04:25:25;7.50;45.50
3504;DHT22;1766;53.490;10.174;2022-12-10T04:27:41;7.60;45.50
3504;DHT22;1766;53.490;10.174;2022-12-10T04:29:43;7.50;45.50
3504;DHT22;1766;53.490;10.174;2022-12-10T04:31:45;7.50;45.50
3504;DHT22;1766;53.490;10.174;2022-12-10T04:33:46;7.50;45.20
3504;DHT22;1766;53.490;10.174;2022-12-10T04:35:48;7.50;45.50
3504;DHT22;1766;53.490;10.174;2022-12-10T04:37:50;7.50;45.30
3504;DHT22;1766;53.490;10.174;2022-12-10T04:39:52;7.50;45.40
3504;DHT22;1766;53.490;10.174;2022-12-10T04:41:55;7.50;45.50
3504;DHT22;1766;53.490;10.174;2022-12-10T04:43:58;7.40;45.50
3504;DHT22;1766;53.490;10.174;2022-12-10T04:46:00;7.40;45.40
3504;DHT22;1766;53.490;10.174;2022-12-10T04:48:02;7.30;45.40
3504;DHT22;1766;53.490;10.174;2022-12-10T04:50:05;7.30;45.50
3504;DHT22;1766;53.490;10.174;2022-12-10T04:52:10;7.30;45.60
3504;DHT22;1766;53.490;10.174;2022-12-10T04:54:13;7.30;45.60
3504;DHT22;1766;53.490;10.174;2022-12-10T04:56:15;7.40;45.60
3504;DHT22;1766;53.490;10.174;2022-12-10T04:58:18;7.30;45.40
3504;DHT22;1766;53.490;10.174;2022-12-10T05:00:20;7.40;45.40
3504;DHT22;1766;53.490;10.174;2022-12-10T05:02:22;7.40;45.40
3504;DHT22;1766;53.490;10.174;2022-12-10T05:04:23;7.40;45.40
3504;DHT22;1766;53.490;10.174;2022-12-10T05:06:26;7.40;45.40
3504;DHT22;1766;53.490;10.174;2022-12-10T05:08:28;7.50;45.00
3504;DHT22;1766;53.490;10.174;2022-12-10T05:10:30;7.40;45.30
3504;DHT22;1766;53.490;10.174;2022-12-10T05:12:35;7.50;45.30
3504;DHT22;1766;53.490;10.174;2022-12-10T05:14:38;7.40;45.20
3504;DHT22;1766;53.490;10.174;2022-12-10T05:16:40;7.40;45.20
3504;DHT22;1766;53.490;10.174;2022-12-10T05:18:43;7.50;45.40
3504;DHT22;1766;53.490;10.174;2022-12-10T05:20:45;7.50;45.40
3504;DHT22;1766;53.490;10.174;2022-12-10T05:22:47;7.50;45.20
3504;DHT22;1766;53.490;10.174;2022-12-10T05:25:03;7.50;45.20
3504;DHT22;1766;53.490;10.174;2022-12-10T05:27:06;7.50;45.10
3504;DHT22;1766;53.490;10.174;2022-12-10T05:29:08;7.50;45.10
3504;DHT22;1766;53.490;10.174;2022-12-10T05:31:14;7.50;45.10
3504;DHT22;1766;53.490;10.174;2022-12-10T05:33:17;7.50;45.20
3504;DHT22;1766;53.490;10.174;2022-12-10T05:35:19;7.50;45.10
3504;DHT22;1766;53.490;10.174;2022-12-10T05:37:20;7.50;45.50
3504;DHT22;1766;53.490;10.174;2022-12-10T05:39:22;7.50;45.10
3504;DHT22;1766;53.490;10.174;2022-12-10T05:41:26;7.50;45.00
3504;DHT22;1766;53.490;10.174;2022-12-10T05:43:28;7.40;45.10
3504;DHT22;1766;53.490;10.174;2022-12-10T05:45:32;7.40;45.00
3504;DHT22;1766;53.490;10.174;2022-12-10T05:47:35;7.40;45.10
3504;DHT22;1766;53.490;10.174;2022-12-10T05:49:37;7.40;44.90
3504;DHT22;1766;53.490;10.174;2022-12-10T05:51:39;7.30;44.90
3504;DHT22;1766;53.490;10.174;2022-12-10T05:53:41;7.40;45.00
3504;DHT22;1766;53.490;10.174;2022-12-10T05:55:43;7.30;44.90
3504;DHT22;1766;53.490;10.174;2022-12-10T05:57:45;7.40;45.10
3504;DHT22;1766;53.490;10.174;2022-12-10T05:59:47;7.30;44.90
3504;DHT22;1766;53.490;10.174;2022-12-10T06:01:48;7.40;45.00
3504;DHT22;1766;53.490;10.174;2022-12-10T06:03:52;7.30;44.80
3504;DHT22;1766;53.490;10.174;2022-12-10T06:05:54;7.40;44.90
3504;DHT22;1766;53.490;10.174;2022-12-10T06:07:56;7.40;44.80
3504;DHT22;1766;53.490;10.174;2022-12-10T06:09:57;7.30;44.80
3504;DHT22;1766;53.490;10.174;2022-12-10T06:11:59;7.30;44.80
3504;DHT22;1766;53.490;10.174;2022-12-10T06:14:01;7.40;44.60
3504;DHT22;1766;53.490;10.174;2022-12-10T06:16:04;7.30;44.70
3504;DHT22;1766;53.490;10.174;2022-12-10T06:18:07;7.30;44.80
3504;DHT22;1766;53.490;10.174;2022-12-10T06:20:11;7.30;44.80
3504;DHT22;1766;53.490;10.174;2022-12-10T06:22:13;7.30;44.70
3504;DHT22;1766;53.490;10.174;2022-12-10T06:24:14;7.40;44.70
3504;DHT22;1766;53.490;10.174;2022-12-10T06:26:18;7.30;44.60
3504;DHT22;1766;53.490;10.174;2022-12-10T06:28:20;7.30;44.80
3504;DHT22;1766;53.490;10.174;2022-12-10T06:30:22;7.30;44.70
3504;DHT22;1766;53.490;10.174;2022-12-10T06:32:24;7.30;44.60
3504;DHT22;1766;53.490;10.174;2022-12-10T06:34:26;7.30;44.60
3504;DHT22;1766;53.490;10.174;2022-12-10T06:36:30;7.30;44.70
3504;DHT22;1766;53.490;10.174;2022-12-10T06:38:32;7.30;44.50
3504;DHT22;1766;53.490;10.174;2022-12-10T06:40:34;7.30;44.70
3504;DHT22;1766;53.490;10.174;2022-12-10T06:42:36;7.30;44.50
3504;DHT22;1766;53.490;10.174;2022-12-10T06:44:38;7.30;44.50
3504;DHT22;1766;53.490;10.174;2022-12-10T06:46:40;7.20;44.40
3504;DHT22;1766;53.490;10.174;2022-12-10T06:48:42;7.30;44.50
3504;DHT22;1766;53.490;10.174;2022-12-10T06:50:44;7.30;44.70
3504;DHT22;1766;53.490;10.174;2022-12-10T06:52:49;7.30;44.60
3504;DHT22;1766;53.490;10.174;2022-12-10T06:54:51;7.30;44.60
3504;DHT22;1766;53.490;10.174;2022-12-10T06:56:54;7.30;44.50
3504;DHT22;1766;53.490;10.174;2022-12-10T06:58:56;7.40;44.60
3504;DHT22;1766;53.490;10.174;2022-12-10T07:01:02;7.40;44.60
3504;DHT22;1766;53.490;10.174;2022-12-10T07:03:16;7.40;44.70
3504;DHT22;1766;53.490;10.174;2022-12-10T07:05:18;7.30;45.10
3504;DHT22;1766;53.490;10.174;2022-12-10T07:07:20;7.30;44.60
3504;DHT22;1766;53.490;10.174;2022-12-10T07:09:23;7.40;44.70
3504;DHT22;1766;53.490;10.174;2022-12-10T07:11:25;7.40;44.70
3504;DHT22;1766;53.490;10.174;2022-12-10T07:13:27;7.40;44.70
3504;DHT22;1766;53.490;10.174;2022-12-10T07:15:30;7.40;44.60
3504;DHT22;1766;53.490;10.174;2022-12-10T07:17:32;7.40;44.60
3504;DHT22;1766;53.490;10.174;2022-12-10T07:19:34;7.10;44.30
3504;DHT22;1766;53.490;10.174;2022-12-10T07:21:37;7.40;44.50
3504;DHT22;1766;53.490;10.174;2022-12-10T07:23:41;7.40;44.60
3504;DHT22;1766;53.490;10.174;2022-12-10T07:25:44;7.40;44.60
3504;DHT22;1766;53.490;10.174;2022-12-10T07:27:46;7.40;44.50
3504;DHT22;1766;53.490;10.174;2022-12-10T07:29:47;7.50;44.50
3504;DHT22;1766;53.490;10.174;2022-12-10T07:31:49;7.40;44.30
3504;DHT22;1766;53.490;10.174;2022-12-10T07:33:52;7.40;44.40
3504;DHT22;1766;53.490;10.174;2022-12-10T07:35:55;7.30;44.40
3504;DHT22;1766;53.490;10.174;2022-12-10T07:37:57;7.30;44.40
3504;DHT22;1766;53.490;10.174;2022-12-10T07:39:59;7.30;44.40
3504;DHT22;1766;53.490;10.174;2022-12-10T07:42:02;7.20;44.30
3504;DHT22;1766;53.490;10.174;2022-12-10T07:44:05;7.30;44.50
3504;DHT22;1766;53.490;10.174;2022-12-10T07:46:09;7.30;45.00
3504;DHT22;1766;53.490;10.174;2022-12-10T07:48:12;7.30;44.50
3504;DHT22;1766;53.490;10.174;2022-12-10T07:50:14;7.20;44.40
3504;DHT22;1766;53.490;10.174;2022-12-10T07:52:16;7.40;44.30
3504;DHT22;1766;53.490;10.174;2022-12-10T07:54:18;7.30;44.30
3504;DHT22;1766;53.490;10.174;2022-12-10T07:56:21;7.40;44.40
3504;DHT22;1766;53.490;10.174;2022-12-10T07:58:24;7.30;44.00
3504;DHT22;1766;53.490;10.174;2022-12-10T08:00:26;7.40;44.30
3504;DHT22;1766;53.490;10.174;2022-12-10T08:02:28;7.40;44.30
3504;DHT22;1766;53.490;10.174;2022-12-10T08:04:30;7.30;44.00
3504;DHT22;1766;53.490;10.174;2022-12-10T08:06:31;7.30;44.10
3504;DHT22;1766;53.490;10.174;2022-12-10T08:08:34;7.30;44.10
3504;DHT22;1766;53.490;10.174;2022-12-10T08:10:38;7.20;44.00
3504;DHT22;1766;53.490;10.174;2022-12-10T08:12:40;7.30;44.00
3504;DHT22;1766;53.490;10.174;2022-12-10T08:14:43;7.50;44.20
3504;DHT22;1766;53.490;10.174;2022-12-10T08:16:45;7.30;44.00
3504;DHT22;1766;53.490;10.174;2022-12-10T08:18:46;7.40;44.50
3504;DHT22;1766;53.490;10.174;2022-12-10T08:20:48;7.40;44.00
3504;DHT22;1766;53.490;10.174;2022-12-10T08:22:50;7.40;43.90
3504;DHT22;1766;53.490;10.174;2022-12-10T08:24:52;7.30;44.30
3504;DHT22;1766;53.490;10.174;2022-12-10T08:26:54;7.40;43.80
3504;DHT22;1766;53.490;10.174;2022-12-10T08:28:56;7.30;43.70
3504;DHT22;1766;53.490;10.174;2022-12-10T08:31:00;7.40;43.90
3504;DHT22;1766;53.490;10.174;2022-12-10T08:33:02;7.40;43.80
3504;DHT22;1766;53.490;10.174;2022-12-10T08:35:04;7.40;43.80
3504;DHT22;1766;53.490;10.174;2022-12-10T08:37:06;7.40;43.80
3504;DHT22;1766;53.490;10.174;2022-12-10T08:39:08;7.40;43.70
3504;DHT22;1766;53.490;10.174;2022-12-10T08:41:17;7.30;43.70
3504;DHT22;1766;53.490;10.174;2022-12-10T08:43:20;7.30;43.70
3504;DHT22;1766;53.490;10.174;2022-12-10T08:45:22;7.30;43.50
3504;DHT22;1766;53.490;10.174;2022-12-10T08:47:25;7.30;43.70
3504;DHT22;1766;53.490;10.174;2022-12-10T08:49:28;7.30;43.50
3504;DHT22;1766;53.490;10.174;2022-12-10T08:51:29;7.30;43.70
3504;DHT22;1766;53.490;10.174;2022-12-10T08:53:31;7.20;43.50
3504;DHT22;1766;53.490;10.174;2022-12-10T08:55:33;7.20;43.50
3504;DHT22;1766;53.490;10.174;2022-12-10T08:57:39;7.20;43.70
3504;DHT22;1766;53.490;10.174;2022-12-10T08:59:41;7.20;43.60
3504;DHT22;1766;53.490;10.174;2022-12-10T09:01:43;7.30;43.70
3504;DHT22;1766;53.490;10.174;2022-12-10T09:06:02;7.30;43.10
3504;DHT22;1766;53.490;10.174;2022-12-10T09:08:04;7.30;43.70
3504;DHT22;1766;53.490;10.174;2022-12-10T09:10:08;7.30;43.40
3504;DHT22;1766;53.490;10.174;2022-12-10T09:12:11;7.30;43.60
3504;DHT22;1766;53.490;10.174;2022-12-10T09:14:13;7.40;43.50
3504;DHT22;1766;53.490;10.174;2022-12-10T09:16:15;7.40;43.60
3504;DHT22;1766;53.490;10.174;2022-12-10T09:18:18;7.40;43.50
3504;DHT22;1766;53.490;10.174;2022-12-10T09:20:20;7.40;43.50
3504;DHT22;1766;53.490;10.174;2022-12-10T09:22:23;7.40;43.40
3504;DHT22;1766;53.490;10.174;2022-12-10T09:24:25;7.50;43.40
3504;DHT22;1766;53.490;10.174;2022-12-10T09:26:26;7.40;43.30
3504;DHT22;1766;53.490;10.174;2022-12-10T09:28:28;7.40;43.40
3504;DHT22;1766;53.490;10.174;2022-12-10T09:30:30;7.40;43.30
3504;DHT22;1766;53.490;10.174;2022-12-10T09:32:32;7.50;43.50
3504;DHT22;1766;53.490;10.174;2022-12-10T09:34:37;7.50;43.40
3504;DHT22;1766;53.490;10.174;2022-12-10T09:36:39;7.50;43.40
3504;DHT22;1766;53.490;10.174;2022-12-10T09:38:43;7.50;43.30
3504;DHT22;1766;53.490;10.174;2022-12-10T09:40:49;7.60;43.40
3504;DHT22;1766;53.490;10.174;2022-12-10T09:42:59;7.60;43.30
3504;DHT22;1766;53.490;10.174;2022-12-10T09:45:14;7.60;43.20
3504;DHT22;1766;53.490;10.174;2022-12-10T09:47:24;7.60;43.10
3504;DHT22;1766;53.490;10.174;2022-12-10T09:49:39;7.60;43.10
3504;DHT22;1766;53.490;10.174;2022-12-10T09:51:50;7.60;43.10
3504;DHT22;1766;53.490;10.174;2022-12-10T09:53:57;7.70;42.80
3504;DHT22;1766;53.490;10.174;2022-12-10T09:56:02;6.10;41.90
3504;DHT22;1766;53.490;10.174;2022-12-10T09:58:09;7.70;43.20
3504;DHT22;1766;53.490;10.174;2022-12-10T10:00:19;7.70;43.10
3504;DHT22;1766;53.490;10.174;2022-12-10T10:02:25;7.70;43.10
3504;DHT22;1766;53.490;10.174;2022-12-10T10:04:31;7.70;43.00
3504;DHT22;1766;53.490;10.174;2022-12-10T10:06:33;7.70;42.90
3504;DHT22;1766;53.490;10.174;2022-12-10T10:08:38;7.60;42.90
3504;DHT22;1766;53.490;10.174;2022-12-10T10:10:44;7.60;43.10
3504;DHT22;1766;53.490;10.174;2022-12-10T10:12:52;7.60;43.10
3504;DHT22;1766;53.490;10.174;2022-12-10T10:14:58;7.70;42.70
3504;DHT22;1766;53.490;10.174;2022-12-10T10:17:09;7.70;42.90
3504;DHT22;1766;53.490;10.174;2022-12-10T10:19:17;7.60;42.90
3504;DHT22;1766;53.490;10.174;2022-12-10T10:21:23;7.60;42.90
3504;DHT22;1766;53.490;10.174;2022-12-10T10:23:27;7.70;43.00
3504;DHT22;1766;53.490;10.174;2022-12-10T10:25:29;7.60;42.90
3504;DHT22;1766;53.490;10.174;2022-12-10T10:27:32;7.70;42.90
3504;DHT22;1766;53.490;10.174;2022-12-10T10:29:34;7.70;42.70
3504;DHT22;1766;53.490;10.174;2022-12-10T10:31:39;7.70;42.80
3504;DHT22;1766;53.490;10.174;2022-12-10T10:33:48;7.70;42.80
3504;DHT22;1766;53.490;10.174;2022-12-10T10:35:57;7.70;43.00
3504;DHT22;1766;53.490;10.174;2022-12-10T10:38:01;7.80;42.70
3504;DHT22;1766;53.490;10.174;2022-12-10T10:40:12;7.70;42.70
3504;DHT22;1766;53.490;10.174;2022-12-10T10:42:28;7.70;42.70
3504;DHT22;1766;53.490;10.174;2022-12-10T10:44:38;7.80;42.70
3504;DHT22;1766;53.490;10.174;2022-12-10T10:46:42;7.70;42.60
3504;DHT22;1766;53.490;10.174;2022-12-10T10:48:46;7.80;42.60
3504;DHT22;1766;53.490;10.174;2022-12-10T10:50:53;7.70;42.30
3504;DHT22;1766;53.490;10.174;2022-12-10T10:52:56;7.70;42.50
3504;DHT22;1766;53.490;10.174;2022-12-10T10:54:57;7.70;42.60
3504;DHT22;1766;53.490;10.174;2022-12-10T10:57:02;7.70;42.60
3504;DHT22;1766;53.490;10.174;2022-12-10T10:59:24;7.70;42.60
3504;DHT22;1766;53.490;10.174;2022-12-10T11:01:44;7.70;42.30
3504;DHT22;1766;53.490;10.174;2022-12-10T11:03:50;7.70;42.60
3504;DHT22;1766;53.490;10.174;2022-12-10T11:05:57;7.70;42.40
3504;DHT22;1766;53.490;10.174;2022-12-10T11:08:01;7.70;42.50
3504;DHT22;1766;53.490;10.174;2022-12-10T11:10:18;7.70;42.60
3504;DHT22;1766;53.490;10.174;2022-12-10T11:12:30;7.70;42.50
3504;DHT22;1766;53.490;10.174;2022-12-10T11:14:40;7.80;42.60
3504;DHT22;1766;53.490;10.174;2022-12-10T11:16:46;7.80;42.40
3504;DHT22;1766;53.490;10.174;2022-12-10T11:18:54;7.80;41.80
3504;DHT22;1766;53.490;10.174;2022-12-10T11:21:03;7.80;41.90
3504;DHT22;1766;53.490;10.174;2022-12-10T11:23:10;7.80;42.30
3504;DHT22;1766;53.490;10.174;2022-12-10T11:25:13;7.80;42.30
3504;DHT22;1766;53.490;10.174;2022-12-10T11:27:33;7.80;42.30
3504;DHT22;1766;53.490;10.174;2022-12-10T11:29:49;7.80;42.30
3504;DHT22;1766;53.490;10.174;2022-12-10T11:32:04;7.80;42.10
3504;DHT22;1766;53.490;10.174;2022-12-10T11:34:17;7.80;42.10
3504;DHT22;1766;53.490;10.174;2022-12-10T11:36:28;7.80;42.10
3504;DHT22;1766;53.490;10.174;2022-12-10T11:38:45;7.80;42.20
3504;DHT22;1766;53.490;10.174;2022-12-10T11:40:53;7.70;42.00
3504;DHT22;1766;53.490;10.174;2022-12-10T11:43:13;7.80;42.10
3504;DHT22;1766;53.490;10.174;2022-12-10T11:45:29;7.70;42.10
3504;DHT22;1766;53.490;10.174;2022-12-10T11:47:50;7.80;42.20
3504;DHT22;1766;53.490;10.174;2022-12-10T11:50:16;7.80;42.20
3504;DHT22;1766;53.490;10.174;2022-12-10T11:52:34;7.80;42.20
3504;DHT22;1766;53.490;10.174;2022-12-10T11:54:52;7.80;42.10
3504;DHT22;1766;53.490;10.174;2022-12-10T11:57:06;7.80;42.10
3504;DHT22;1766;53.490;10.174;2022-12-10T11:59:18;7.70;41.90
3504;DHT22;1766;53.490;10.174;2022-12-10T12:01:34;7.80;42.10
3504;DHT22;1766;53.490;10.174;2022-12-10T12:03:57;7.90;42.20
3504;DHT22;1766;53.490;10.174;2022-12-10T12:06:18;8.00;41.80
3504;DHT22;1766;53.490;10.174;2022-12-10T12:08:32;7.90;42.00
3504;DHT22;1766;53.490;10.174;2022-12-10T12:10:51;7.90;42.00
3504;DHT22;1766;53.490;10.174;2022-12-10T12:13:02;8.00;42.10
3504;DHT22;1766;53.490;10.174;2022-12-10T12:15:15;7.90;41.90
3504;DHT22;1766;53.490;10.174;2022-12-10T12:17:23;7.90;42.00
3504;DHT22;1766;53.490;10.174;2022-12-10T12:19:33;7.90;42.10
3504;DHT22;1766;53.490;10.174;2022-12-10T12:21:38;7.90;42.00
3504;DHT22;1766;53.490;10.174;2022-12-10T12:23:46;7.90;42.00
3504;DHT22;1766;53.490;10.174;2022-12-10T12:25:55;7.90;41.80
3504;DHT22;1766;53.490;10.174;2022-12-10T12:28:03;7.90;42.10
3504;DHT22;1766;53.490;10.174;2022-12-10T12:30:14;9.10;42.90
3504;DHT22;1766;53.490;10.174;2022-12-10T12:32:24;7.90;42.00
3504;DHT22;1766;53.490;10.174;2022-12-10T12:34:37;7.90;42.00
3504;DHT22;1766;53.490;10.174;2022-12-10T12:36:46;7.90;42.00
3504;DHT22;1766;53.490;10.174;2022-12-10T12:38:56;8.00;42.10
3504;DHT22;1766;53.490;10.174;2022-12-10T12:41:06;7.80;41.90
3504;DHT22;1766;53.490;10.174;2022-12-10T12:43:17;8.00;42.00
3504;DHT22;1766;53.490;10.174;2022-12-10T12:45:34;8.00;42.00
3504;DHT22;1766;53.490;10.174;2022-12-10T12:47:46;7.90;42.00
3504;DHT22;1766;53.490;10.174;2022-12-10T12:49:50;7.90;41.90
3504;DHT22;1766;53.490;10.174;2022-12-10T12:51:56;7.90;41.80
3504;DHT22;1766;53.490;10.174;2022-12-10T12:54:02;7.80;41.90
3504;DHT22;1766;53.490;10.174;2022-12-10T12:56:07;7.80;41.80
3504;DHT22;1766;53.490;10.174;2022-12-10T12:58:22;7.80;42.00
3504;DHT22;1766;53.490;10.174;2022-12-10T13:00:30;7.80;41.90
3504;DHT22;1766;53.490;10.174;2022-12-10T13:02:47;7.90;41.90
3504;DHT22;1766;53.490;10.174;2022-12-10T13:04:54;7.90;41.90
3504;DHT22;1766;53.490;10.174;2022-12-10T13:09:30;7.80;41.80
3504;DHT22;1766;53.490;10.174;2022-12-10T13:11:34;7.90;41.70
3504;DHT22;1766;53.490;10.174;2022-12-10T13:13:38;7.90;41.70
3504;DHT22;1766;53.490;10.174;2022-12-10T13:15:41;7.80;41.80
3504;DHT22;1766;53.490;10.174;2022-12-10T13:18:02;7.80;41.60
3504;DHT22;1766;53.490;10.174;2022-12-10T13:20:28;7.80;41.70
3504;DHT22;1766;53.490;10.174;2022-12-10T13:22:54;7.80;41.60
3504;DHT22;1766;53.490;10.174;2022-12-10T13:25:06;7.80;41.70
3504;DHT22;1766;53.490;10.174;2022-12-10T13:27:19;7.80;41.60
3504;DHT22;1766;53.490;10.174;2022-12-10T13:29:45;7.80;41.50
3504;DHT22;1766;53.490;10.174;2022-12-10T13:31:55;7.80;41.50
3504;DHT22;1766;53.490;10.174;2022-12-10T13:34:21;7.80;41.50
3504;DHT22;1766;53.490;10.174;2022-12-10T13:36:34;7.80;42.00
3504;DHT22;1766;53.490;10.174;2022-12-10T13:38:40;7.70;41.30
3504;DHT22;1766;53.490;10.174;2022-12-10T13:40:43;7.80;41.00
3504;DHT22;1766;53.490;10.174;2022-12-10T13:43:19;7.70;41.10
3504;DHT22;1766;53.490;10.174;2022-12-10T13:45:40;7.80;40.90
3504;DHT22;1766;53.490;10.174;2022-12-10T13:47:45;7.80;41.20
3504;DHT22;1766;53.490;10.174;2022-12-10T13:49:53;7.80;41.10
3504;DHT22;1766;53.490;10.174;2022-12-10T13:52:01;7.70;41.10